Time;durP1;ratioP1;P1;durP2;ratioP2;P2;SDS_P1;SDS_P2;PMS_P1;PMS_P2;Temp;Humidity;BMP_temperature;BMP_pressure;BME280_temperature;BME280_humidity;BME280_pressure;Samples;Min_cycle;Max_cycle;Signal;HPM_P1;HPM_P2
2022/06/21 00:01:03;;;;;;;9.20;3.00;;;21.50;64.20;;;;;;4993437;28;20029;-69
2022/06/21 00:03:29;;;;;;;8.45;2.97;;;21.50;64.10;;;;;;4979812;28;20036;-69
2022/06/21 00:05:55;;;;;;;10.35;3.33;;;21.50;64.10;;;;;;5030190;28;20033;-68
2022/06/21 00:08:22;;;;;;;10.45;3.10;;;21.50;65.20;;;;;;5029282;28;20025;-69
2022/06/21 00:10:47;;;;;;;10.35;3.20;;;21.50;64.20;;;;;;5008863;28;20045;-69
2022/06/21 00:13:15;;;;;;;9.82;3.10;;;21.40;64.20;;;;;;5022002;28;20056;-69
2022/06/21 00:15:41;;;;;;;10.75;2.97;;;21.40;64.10;;;;;;5026091;28;20029;-69
2022/06/21 00:18:11;;;;;;;8.63;3.00;;;21.40;64.10;;;;;;5028414;28;20025;-69
2022/06/21 00:20:36;;;;;;;9.52;3.10;;;21.40;64.10;;;;;;5027605;28;20041;-68
2022/06/21 00:23:02;;;;;;;8.88;2.75;;;21.40;64.20;;;;;;5028289;28;20067;-69
2022/06/21 00:25:27;;;;;;;8.30;2.90;;;21.40;64.20;;;;;;5026334;28;20079;-69
2022/06/21 00:27:54;;;;;;;9.52;2.70;;;21.40;64.10;;;;;;5023678;28;20099;-68
2022/06/21 00:30:20;;;;;;;8.85;2.95;;;21.40;64.10;;;;;;5031781;28;20088;-69
2022/06/21 00:32:47;;;;;;;9.85;2.90;;;21.40;64.10;;;;;;5026544;28;20032;-69
2022/06/21 00:35:16;;;;;;;12.15;3.33;;;21.40;64.10;;;;;;5006387;28;20034;-69
2022/06/21 00:37:41;;;;;;;11.00;3.10;;;21.40;64.20;;;;;;5029111;28;20556;-69
2022/06/21 00:40:25;;;;;;;10.20;2.90;;;21.40;64.20;;;;;;5020683;28;20029;-69
2022/06/21 00:43:10;;;;;;;8.13;2.80;;;21.40;64.20;;;;;;5024430;28;20029;-69
2022/06/21 00:45:37;;;;;;;;;;;21.40;64.20;;;;;;5044166;28;20132;-69
2022/06/21 00:48:25;;;;;;;8.60;2.50;;;21.40;64.20;;;;;;5047075;28;19961;-69
2022/06/21 00:50:53;;;;;;;9.80;3.00;;;21.40;64.10;;;;;;5026942;28;20047;-69
2022/06/21 00:53:25;;;;;;;8.07;2.72;;;21.30;64.10;;;;;;5044679;28;20365;-69
2022/06/21 00:56:02;;;;;;;8.10;2.90;;;21.30;64.10;;;;;;5044095;28;20036;-69
2022/06/21 00:58:28;;;;;;;9.75;2.50;;;21.30;64.10;;;;;;5025473;28;20032;-69
2022/06/21 01:01:14;;;;;;;7.85;2.80;;;21.30;64.10;;;;;;5042750;28;20401;-69
2022/06/21 01:03:47;;;;;;;9.60;2.63;;;21.40;64.20;;;;;;5028380;28;20098;-69
2022/06/21 01:06:27;;;;;;;8.23;2.80;;;21.30;64.10;;;;;;5028029;28;20118;-69
2022/06/21 01:08:56;;;;;;;9.75;2.88;;;21.30;64.10;;;;;;5029087;28;20033;-69
2022/06/21 01:11:24;;;;;;;8.98;2.78;;;21.30;64.10;;;;;;5041857;28;20112;-69
2022/06/21 01:13:51;;;;;;;8.45;2.72;;;21.30;64.10;;;;;;5042069;28;20025;-69
2022/06/21 01:16:16;;;;;;;7.72;2.70;;;21.30;64.10;;;;;;5046185;28;20078;-69
2022/06/21 01:18:42;;;;;;;8.13;2.70;;;21.30;64.10;;;;;;5024528;28;20037;-68
2022/06/21 01:21:08;;;;;;;9.50;2.70;;;21.30;64.20;;;;;;5026468;28;20029;-69
2022/06/21 01:23:50;;;;;;;11.10;3.15;;;21.30;64.10;;;;;;5043379;28;20029;-69
2022/06/21 01:26:31;;;;;;;10.25;2.95;;;21.30;64.10;;;;;;5044090;28;20068;-69
2022/06/21 01:28:57;;;;;;;8.07;2.60;;;21.20;64.10;;;;;;5044112;28;20111;-69
2022/06/21 01:31:22;;;;;;;8.35;2.60;;;21.30;64.10;;;;;;5042307;28;20044;-69
2022/06/21 01:33:48;;;;;;;9.30;2.75;;;21.30;64.10;;;;;;5044044;28;25085;-68
2022/06/21 01:36:19;;;;;;;8.40;2.80;;;21.20;64.10;;;;;;5046887;28;20036;-69
2022/06/21 01:38:53;;;;;;;8.60;2.53;;;21.20;64.10;;;;;;5042537;28;20082;-69
2022/06/21 01:41:26;;;;;;;8.70;2.53;;;21.20;64.10;;;;;;5028381;28;20070;-69
2022/06/21 01:43:54;;;;;;;9.15;2.83;;;21.20;64.10;;;;;;5038757;28;20033;-69
2022/06/21 01:46:21;;;;;;;6.32;2.25;;;21.20;64.10;;;;;;5023681;28;20159;-69
2022/06/21 01:48:51;;;;;;;7.32;2.50;;;21.20;64.10;;;;;;5015699;28;20521;-69
2022/06/21 01:51:24;;;;;;;7.82;2.85;;;21.20;64.10;;;;;;5025040;28;20409;-69
2022/06/21 01:53:50;;;;;;;9.70;2.88;;;21.20;64.10;;;;;;5024546;28;20040;-69
2022/06/21 01:56:21;;;;;;;8.75;2.50;;;21.20;64.10;;;;;;5023673;28;20025;-69
2022/06/21 01:58:50;;;;;;;8.60;2.65;;;21.20;64.10;;;;;;5022800;28;20025;-69
2022/06/21 02:01:26;;;;;;;8.35;2.83;;;21.20;64.00;;;;;;5006672;28;20033;-68
2022/06/21 02:03:53;;;;;;;7.00;2.63;;;21.20;65.10;;;;;;5023081;28;20018;-69
2022/06/21 02:06:19;;;;;;;5.72;2.30;;;21.20;64.10;;;;;;4993137;28;20029;-69
2022/06/21 02:08:47;;;;;;;7.85;2.75;;;21.20;64.10;;;;;;5008068;28;20033;-69
2022/06/21 02:11:20;;;;;;;7.30;2.47;;;21.10;64.00;;;;;;5023279;28;20183;-69
2022/06/21 02:14:28;;;;;;;6.65;2.47;;;21.10;64.00;;;;;;4991883;28;20494;-69
2022/06/21 02:16:36;;;;;;;6.78;2.25;;;21.10;63.90;;;;;;5023694;28;20110;-69
2022/06/21 02:19:02;;;;;;;5.97;2.40;;;21.10;64.10;;;;;;5007416;28;20418;-69
2022/06/21 02:21:34;;;;;;;7.20;2.63;;;21.10;64.00;;;;;;5007304;28;20517;-69
2022/06/21 02:24:00;;;;;;;8.07;2.60;;;21.10;64.00;;;;;;4992094;28;20033;-69
2022/06/21 02:26:28;;;;;;;6.00;2.53;;;21.10;64.00;;;;;;4992051;28;20029;-69
2022/06/21 02:28:54;;;;;;;8.20;2.50;;;21.10;64.00;;;;;;5022820;28;20076;-69
2022/06/21 02:31:19;;;;;;;6.80;2.50;;;21.10;63.90;;;;;;5025194;28;20057;-69
2022/06/21 02:33:45;;;;;;;7.82;2.47;;;21.10;64.00;;;;;;5023414;28;20029;-69
2022/06/21 02:36:14;;;;;;;5.40;2.25;;;21.10;64.00;;;;;;5024193;28;20052;-69
2022/06/21 02:38:48;;;;;;;7.05;2.47;;;21.10;64.00;;;;;;5006706;28;20029;-69
2022/06/21 02:41:18;;;;;;;6.57;2.20;;;21.10;65.10;;;;;;5002550;28;20040;-69
2022/06/21 02:43:48;;;;;;;5.80;2.28;;;21.10;64.00;;;;;;5007069;28;20463;-69
2022/06/21 02:46:19;;;;;;;6.53;2.08;;;21.10;64.00;;;;;;5026643;28;20025;-69
2022/06/21 02:48:52;;;;;;;5.85;2.10;;;21.10;64.00;;;;;;5058782;28;20040;-68
2022/06/21 02:51:20;;;;;;;7.78;2.58;;;21.10;64.00;;;;;;5059853;28;20033;-69
2022/06/21 02:53:55;;;;;;;7.60;2.35;;;21.00;63.90;;;;;;5060306;28;20028;-69
2022/06/21 02:56:28;;;;;;;6.05;2.33;;;21.00;63.90;;;;;;5059055;28;20033;-69
2022/06/21 02:58:55;;;;;;;7.93;2.28;;;21.00;63.90;;;;;;5059078;28;20025;-69
2022/06/21 03:01:27;;;;;;;5.85;2.08;;;21.00;63.90;;;;;;5061957;28;20394;-68
2022/06/21 03:03:53;;;;;;;5.57;2.28;;;21.00;63.90;;;;;;5061649;28;20134;-68
2022/06/21 03:06:19;;;;;;;6.55;2.50;;;21.00;63.90;;;;;;5062749;28;20029;-69
2022/06/21 03:09:10;;;;;;;6.72;2.35;;;21.00;63.90;;;;;;5047710;28;20029;-68
2022/06/21 03:11:37;;;;;;;6.20;2.20;;;21.00;65.00;;;;;;5059482;28;20040;-69
2022/06/21 03:14:06;;;;;;;7.53;2.50;;;21.00;63.90;;;;;;5060369;28;20025;-68
2022/06/21 03:16:31;;;;;;;6.50;2.53;;;21.10;64.00;;;;;;5046635;28;20484;-69
2022/06/21 03:18:59;;;;;;;6.25;2.40;;;21.00;63.90;;;;;;5046375;28;20107;-69
2022/06/21 03:21:30;;;;;;;4.65;2.17;;;21.00;64.00;;;;;;5063123;28;20615;-68
2022/06/21 03:23:57;;;;;;;8.05;2.58;;;21.00;64.00;;;;;;5044621;28;20112;-68
2022/06/21 03:26:23;;;;;;;7.05;2.15;;;21.00;63.90;;;;;;5063440;28;20548;-69
2022/06/21 03:28:49;;;;;;;6.90;2.00;;;21.00;63.90;;;;;;5062525;28;20032;-69
2022/06/21 03:31:33;;;;;;;7.25;2.10;;;21.00;63.90;;;;;;5046440;28;20052;-68
2022/06/21 03:34:11;;;;;;;5.85;2.42;;;21.00;63.90;;;;;;5059418;28;20025;-68
2022/06/21 03:36:36;;;;;;;6.32;2.20;;;21.00;63.90;;;;;;5045592;28;20037;-68
2022/06/21 03:39:05;;;;;;;7.88;2.35;;;21.00;63.90;;;;;;5049588;28;20123;-69
2022/06/21 03:41:43;;;;;;;7.40;2.50;;;21.00;64.00;;;;;;5047400;28;20029;-69
2022/06/21 03:44:32;;;;;;;5.25;2.10;;;21.00;64.00;;;;;;5056764;28;20132;-68
2022/06/21 03:47:05;;;;;;;7.72;2.47;;;21.00;63.90;;;;;;5063302;28;20020;-69
2022/06/21 03:49:55;;;;;;;5.80;2.33;;;21.00;63.90;;;;;;5061920;28;20040;-69
2022/06/21 03:52:41;;;;;;;4.90;2.13;;;20.90;64.00;;;;;;5045637;28;20033;-69
2022/06/21 03:55:33;;;;;;;6.50;2.25;;;21.00;63.90;;;;;;5061659;28;20081;-69
2022/06/21 03:58:40;;;;;;;7.45;2.20;;;21.00;64.00;;;;;;5031217;28;20037;-69
2022/06/21 04:01:42;;;;;;;4.80;2.13;;;21.00;63.90;;;;;;4997810;28;20077;-69
2022/06/21 04:04:13;;;;;;;6.97;2.22;;;20.90;63.80;;;;;;4997057;28;20532;-68
2022/06/21 04:06:55;;;;;;;5.18;2.20;;;20.90;63.80;;;;;;4996626;28;20461;-69
2022/06/21 04:09:42;;;;;;;5.68;2.15;;;21.00;63.90;;;;;;5001307;28;20050;-68
2022/06/21 04:12:19;;;;;;;5.97;2.15;;;20.90;63.90;;;;;;5000031;28;20113;-69
2022/06/21 04:14:48;;;;;;;6.00;2.30;;;20.90;63.80;;;;;;4992950;28;20057;-68
2022/06/21 04:17:44;;;;;;;5.55;2.03;;;20.90;63.90;;;;;;4992418;28;20032;-68
2022/06/21 04:20:16;;;;;;;5.45;2.40;;;20.90;63.90;;;;;;5015727;28;20080;-69
2022/06/21 04:22:50;;;;;;;4.78;2.10;;;20.90;63.80;;;;;;4993315;28;20117;-68
2022/06/21 04:25:24;;;;;;;5.68;2.10;;;20.90;63.80;;;;;;5010708;28;20041;-68
2022/06/21 04:28:06;;;;;;;6.75;2.40;;;20.90;63.80;;;;;;5010881;28;20141;-68
2022/06/21 04:31:01;;;;;;;4.28;1.85;;;20.90;63.80;;;;;;4971625;28;20048;-69
2022/06/21 04:33:37;;;;;;;6.73;2.00;;;20.90;63.90;;;;;;4983426;28;20053;-68
2022/06/21 04:36:25;;;;;;;5.75;2.08;;;20.90;64.00;;;;;;4996493;28;20040;-69
2022/06/21 04:38:57;;;;;;;6.50;2.00;;;20.90;64.00;;;;;;5032500;28;20033;-69
2022/06/21 04:41:40;;;;;;;6.53;2.10;;;20.90;64.20;;;;;;5060712;28;20071;-68
2022/06/21 04:44:12;;;;;;;5.22;2.17;;;20.90;64.10;;;;;;5059820;28;20045;-69
2022/06/21 04:46:43;;;;;;;5.88;2.13;;;20.90;64.10;;;;;;5057492;28;20098;-68
2022/06/21 04:49:29;;;;;;;7.05;2.15;;;20.90;64.00;;;;;;5044031;28;20029;-69
2022/06/21 04:52:05;;;;;;;5.93;2.10;;;20.90;64.00;;;;;;5044951;28;20033;-68
2022/06/21 04:54:33;;;;;;;7.10;2.22;;;20.90;63.90;;;;;;5058350;28;20504;-69
2022/06/21 04:57:12;;;;;;;5.55;2.28;;;20.90;64.00;;;;;;5044554;28;20079;-69
2022/06/21 05:00:03;;;;;;;4.10;1.92;;;20.90;63.90;;;;;;5043809;28;20524;-69
2022/06/21 05:02:31;;;;;;;5.55;2.00;;;20.80;64.00;;;;;;5050995;28;20413;-68
2022/06/21 05:05:05;;;;;;;4.65;2.17;;;20.90;64.00;;;;;;5046173;28;20017;-69
2022/06/21 05:07:33;;;;;;;6.18;2.30;;;20.90;64.10;;;;;;5060529;28;20021;-69
2022/06/21 05:09:58;;;;;;;5.97;2.40;;;20.90;64.10;;;;;;5028536;28;20451;-68
2022/06/21 05:12:31;;;;;;;6.90;2.20;;;20.80;64.00;;;;;;5045651;28;20025;-69
2022/06/21 05:15:07;;;;;;;9.57;2.40;;;20.90;64.10;;;;;;5058344;28;20112;-69
2022/06/21 05:17:34;;;;;;;5.80;2.45;;;20.80;64.00;;;;;;5044228;28;20024;-69
2022/06/21 05:20:06;;;;;;;4.65;1.90;;;20.80;65.10;;;;;;5044109;28;20037;-68
2022/06/21 05:22:38;;;;;;;7.05;2.30;;;20.80;64.00;;;;;;5042960;28;20025;-68
2022/06/21 05:25:07;;;;;;;7.18;2.40;;;20.80;64.10;;;;;;5043376;28;20060;-69
2022/06/21 05:27:35;;;;;;;4.57;2.00;;;20.80;64.20;;;;;;5042965;28;20444;-69
2022/06/21 05:30:19;;;;;;;4.95;2.30;;;20.80;64.20;;;;;;5043615;28;20069;-68
2022/06/21 05:32:50;;;;;;;4.20;2.10;;;20.80;64.10;;;;;;5025677;28;20025;-68
2022/06/21 05:35:29;;;;;;;6.07;2.15;;;20.80;64.10;;;;;;5058144;28;20070;-68
2022/06/21 05:38:19;;;;;;;5.80;2.03;;;20.80;64.40;;;;;;5041792;28;20239;-67
2022/06/21 05:41:32;;;;;;;7.45;2.30;;;20.80;64.40;;;;;;5042968;28;20045;-67
2022/06/21 05:44:11;;;;;;;8.02;2.60;;;20.80;64.20;;;;;;5003914;28;20076;-68
2022/06/21 05:46:41;;;;;;;9.82;2.70;;;20.80;64.40;;;;;;5000274;28;20041;-67
2022/06/21 05:49:10;;;;;;;5.22;2.10;;;20.80;64.50;;;;;;5002894;28;20464;-68
2022/06/21 05:51:35;;;;;;;9.32;2.70;;;20.80;64.60;;;;;;5003541;28;20046;-68
2022/06/21 05:54:08;;;;;;;8.10;2.55;;;20.90;64.90;;;;;;5000918;28;20034;-68
2022/06/21 05:56:35;;;;;;;9.35;2.40;;;20.90;64.90;;;;;;5003250;28;20049;-67
2022/06/21 05:59:03;;;;;;;10.88;2.38;;;20.80;64.90;;;;;;5001705;28;20228;-68
2022/06/21 06:02:13;;;;;;;8.90;2.65;;;20.90;65.20;;;;;;4999990;28;20030;-67
2022/06/21 06:04:58;;;;;;;7.50;2.45;;;20.90;65.30;;;;;;4921463;29;20051;-67
2022/06/21 06:07:27;;;;;;;8.15;2.50;;;20.90;65.20;;;;;;4907377;29;20031;-67
2022/06/21 06:09:56;;;;;;;8.68;2.30;;;20.90;65.20;;;;;;4925062;29;20063;-67
2022/06/21 06:12:24;;;;;;;11.13;2.75;;;20.90;66.10;;;;;;4895712;29;20068;-67
2022/06/21 06:14:54;;;;;;;9.93;2.50;;;20.90;64.70;;;;;;4908052;29;20035;-67
2022/06/21 06:17:20;;;;;;;7.57;2.33;;;20.90;64.70;;;;;;4928560;29;20077;-67
2022/06/21 06:19:49;;;;;;;10.85;2.63;;;20.80;64.50;;;;;;4945352;29;20058;-67
2022/06/21 06:22:41;;;;;;;9.60;2.85;;;20.80;64.60;;;;;;4928600;29;20492;-67
2022/06/21 06:25:11;;;;;;;11.38;2.50;;;20.80;64.50;;;;;;4911557;29;20063;-67
2022/06/21 06:27:52;;;;;;;8.38;2.50;;;20.80;64.40;;;;;;4893548;29;20036;-67
2022/06/21 06:30:21;;;;;;;10.82;2.40;;;20.80;64.40;;;;;;4912883;29;20109;-67
2022/06/21 06:33:08;;;;;;;7.70;2.53;;;20.80;64.40;;;;;;4895388;29;20108;-67
2022/06/21 06:35:33;;;;;;;7.53;2.35;;;20.80;64.40;;;;;;4936155;28;20050;-67
2022/06/21 06:37:59;;;;;;;9.40;2.50;;;20.80;64.40;;;;;;4957711;28;20030;-67
2022/06/21 06:40:29;;;;;;;8.55;2.33;;;20.80;64.40;;;;;;4948588;28;20035;-67
2022/06/21 06:42:59;;;;;;;10.25;2.72;;;20.80;65.30;;;;;;4954778;28;20072;-67
2022/06/21 06:45:29;;;;;;;8.65;2.38;;;20.80;64.40;;;;;;4958837;28;20129;-67
2022/06/21 06:48:01;;;;;;;6.80;2.30;;;20.80;64.30;;;;;;4952090;28;20110;-68
2022/06/21 06:50:29;;;;;;;7.10;2.47;;;20.80;64.30;;;;;;4952184;28;20047;-68
2022/06/21 06:53:02;;;;;;;7.18;2.33;;;20.80;64.30;;;;;;4952115;28;20550;-67
2022/06/21 06:55:39;;;;;;;9.88;2.72;;;20.80;64.40;;;;;;4946110;28;20050;-67
2022/06/21 06:58:24;;;;;;;7.88;2.35;;;20.80;64.40;;;;;;4951807;28;20059;-67
2022/06/21 07:00:53;;;;;;;7.68;2.33;;;20.80;64.30;;;;;;4953283;28;20054;-67
2022/06/21 07:03:28;;;;;;;6.45;2.30;;;20.80;64.20;;;;;;5048345;28;20585;-67
2022/06/21 07:06:12;;;;;;;7.95;2.50;;;20.80;64.30;;;;;;5059585;28;20028;-67
2022/06/21 07:08:50;;;;;;;9.23;2.45;;;20.80;64.20;;;;;;5061880;28;20028;-67
2022/06/21 07:11:26;;;;;;;7.07;2.30;;;20.80;64.30;;;;;;5047217;28;20570;-68
2022/06/21 07:13:52;;;;;;;6.15;2.20;;;20.80;64.20;;;;;;5060576;28;20044;-67
2022/06/21 07:16:19;;;;;;;7.60;2.65;;;20.70;64.20;;;;;;5061370;28;20441;-67
2022/06/21 07:18:50;;;;;;;6.75;2.55;;;20.80;64.20;;;;;;5063699;28;20492;-67
2022/06/21 07:21:16;;;;;;;6.68;2.20;;;20.70;64.10;;;;;;5049397;28;20124;-67
2022/06/21 07:23:42;;;;;;;6.05;2.45;;;20.70;64.10;;;;;;5059655;28;20060;-67
2022/06/21 07:26:19;;;;;;;7.50;2.47;;;20.80;64.10;;;;;;5062683;28;20032;-67
2022/06/21 07:28:49;;;;;;;5.68;2.20;;;20.80;64.20;;;;;;5044884;28;20029;-67
2022/06/21 07:31:25;;;;;;;9.23;2.50;;;20.70;64.10;;;;;;5045964;28;20120;-67
2022/06/21 07:33:58;;;;;;;6.32;2.50;;;20.80;64.10;;;;;;5061386;28;20037;-68
2022/06/21 07:37:00;;;;;;;8.55;2.50;;;20.80;64.10;;;;;;5062178;28;20405;-67
2022/06/21 07:39:38;;;;;;;6.40;2.33;;;20.80;64.10;;;;;;5055378;28;20044;-67
2022/06/21 07:42:10;;;;;;;5.93;2.33;;;20.80;64.10;;;;;;5047310;28;20595;-68
2022/06/21 07:44:44;;;;;;;6.60;2.42;;;20.70;64.00;;;;;;5035333;28;20417;-67
2022/06/21 07:47:13;;;;;;;5.90;2.28;;;20.80;64.10;;;;;;5026133;28;20490;-67
2022/06/21 07:49:53;;;;;;;8.75;2.53;;;20.80;64.00;;;;;;5002114;28;20060;-67
2022/06/21 07:52:24;;;;;;;6.43;2.42;;;20.80;64.00;;;;;;5008519;28;20516;-67
2022/06/21 07:55:00;;;;;;;7.90;2.50;;;20.80;63.90;;;;;;5026621;28;20087;-67
2022/06/21 07:57:34;;;;;;;7.80;2.40;;;20.80;63.90;;;;;;5027279;28;20041;-67
2022/06/21 08:00:07;;;;;;;7.07;2.43;;;20.80;63.90;;;;;;5025085;28;20087;-67
2022/06/21 08:08:34;;;;;;;4.80;2.10;;;20.80;63.80;;;;;;5011056;28;20159;-67
2022/06/21 08:11:08;;;;;;;8.93;2.58;;;20.90;63.80;;;;;;5021829;28;20049;-67
2022/06/21 08:13:34;;;;;;;5.05;2.10;;;20.90;63.70;;;;;;5025263;28;20021;-67
2022/06/21 08:16:21;;;;;;;8.38;2.20;;;20.90;63.70;;;;;;5026398;28;20040;-67
2022/06/21 08:18:49;;;;;;;7.15;2.17;;;20.90;63.70;;;;;;5008278;28;20041;-67
2022/06/21 08:21:26;;;;;;;8.75;2.42;;;20.90;63.70;;;;;;5026312;28;20393;-67
2022/06/21 08:24:15;;;;;;;8.13;2.60;;;20.90;63.70;;;;;;5022135;28;20042;-68
2022/06/21 08:26:55;;;;;;;5.03;2.00;;;20.90;63.70;;;;;;5024594;28;20052;-67
2022/06/21 08:29:33;;;;;;;6.75;2.25;;;20.90;63.60;;;;;;5025141;28;20029;-68
2022/06/21 08:32:02;;;;;;;6.60;2.50;;;20.90;63.60;;;;;;5021032;28;20124;-67
2022/06/21 08:34:42;;;;;;;6.10;2.35;;;20.90;63.50;;;;;;5024329;28;20024;-68
2022/06/21 08:37:21;;;;;;;6.05;2.33;;;21.00;63.50;;;;;;5024891;28;20021;-67
2022/06/21 08:40:00;;;;;;;8.13;2.30;;;21.00;63.50;;;;;;5021799;28;20025;-68
2022/06/21 08:42:37;;;;;;;6.72;2.33;;;21.00;63.50;;;;;;5025199;28;20072;-67
2022/06/21 08:48:19;;;;;;;6.80;2.47;;;21.00;63.60;;;;;;5047390;28;20390;-68
2022/06/21 08:50:57;;;;;;;11.23;2.80;;;21.00;63.60;;;;;;5060828;28;20677;-67
2022/06/21 08:53:45;;;;;;;7.70;2.50;;;21.00;63.60;;;;;;5044766;28;20025;-67
2022/06/21 08:56:28;;;;;;;8.70;2.55;;;21.00;63.60;;;;;;5046462;28;20028;-68
2022/06/21 08:59:18;;;;;;;6.70;2.40;;;21.00;63.60;;;;;;5045681;28;20029;-68
2022/06/21 09:02:05;;;;;;;5.55;2.35;;;21.00;63.50;;;;;;5045191;28;20017;-68
2022/06/21 09:04:56;;;;;;;8.55;2.55;;;21.10;63.50;;;;;;5044390;28;20195;-68
2022/06/21 09:07:44;;;;;;;7.90;2.42;;;21.10;63.50;;;;;;5044557;28;20116;-67
2022/06/21 09:10:31;;;;;;;8.35;2.40;;;21.10;63.40;;;;;;5044754;28;20036;-67
2022/06/21 09:13:18;;;;;;;8.68;2.50;;;21.10;63.50;;;;;;5043619;28;20047;-68
2022/06/21 09:16:00;;;;;;;7.32;2.33;;;21.10;63.50;;;;;;5042963;28;20048;-68
2022/06/21 09:19:08;;;;;;;6.28;2.60;;;21.10;63.50;;;;;;5061520;28;20028;-68
2022/06/21 09:21:48;;;;;;;6.45;2.50;;;21.10;63.40;;;;;;4996151;28;20047;-68
2022/06/21 09:24:39;;;;;;;6.97;2.45;;;21.10;63.50;;;;;;4981631;28;20076;-68
2022/06/21 09:27:24;;;;;;;6.40;2.53;;;21.10;63.50;;;;;;5000111;28;20040;-68
2022/06/21 09:30:06;;;;;;;6.30;2.45;;;21.20;63.60;;;;;;4998465;28;20516;-68
2022/06/21 09:32:53;;;;;;;7.97;2.83;;;21.20;63.50;;;;;;4982585;28;20510;-68
2022/06/21 09:35:47;;;;;;;6.55;2.63;;;21.20;63.50;;;;;;4982921;28;20041;-68
2022/06/21 09:38:18;;;;;;;9.07;2.78;;;21.20;63.30;;;;;;4996146;28;20477;-68
2022/06/21 09:41:04;;;;;;;7.03;2.60;;;21.20;63.40;;;;;;4998814;28;20122;-67
2022/06/21 09:43:57;;;;;;;7.88;2.60;;;21.30;63.40;;;;;;4996495;28;20038;-68
2022/06/21 09:46:41;;;;;;;9.40;2.60;;;21.30;63.50;;;;;;4980047;28;20054;-68
2022/06/21 09:49:51;;;;;;;7.80;2.30;;;21.30;63.50;;;;;;4997615;28;20080;-68
2022/06/21 09:52:34;;;;;;;6.80;2.42;;;21.30;63.50;;;;;;4978883;28;20077;-68
2022/06/21 09:55:10;;;;;;;8.45;2.70;;;21.30;63.40;;;;;;4993288;28;20038;-68
2022/06/21 09:57:52;;;;;;;7.90;2.65;;;21.30;63.40;;;;;;4984750;28;20030;-68
2022/06/21 10:00:23;;;;;;;7.47;2.83;;;21.40;63.30;;;;;;5047005;28;20033;-68
2022/06/21 10:03:13;;;;;;;8.75;2.70;;;21.30;63.30;;;;;;5045200;28;20448;-68
2022/06/21 10:05:47;;;;;;;8.63;2.63;;;21.40;63.30;;;;;;5055543;28;20021;-68
2022/06/21 10:08:45;;;;;;;5.93;2.37;;;21.40;63.40;;;;;;5043943;28;20033;-68
2022/06/21 10:11:19;;;;;;;7.22;2.42;;;21.40;63.50;;;;;;5058907;28;20819;-68
2022/06/21 10:14:10;;;;;;;7.63;2.58;;;21.40;63.30;;;;;;5061189;28;20524;-68
2022/06/21 10:16:57;;;;;;;9.10;2.90;;;21.40;63.20;;;;;;5063294;28;20107;-67
2022/06/21 10:19:32;;;;;;;8.23;2.70;;;21.40;63.40;;;;;;5048948;28;20033;-68
2022/06/21 10:22:03;;;;;;;10.43;2.60;;;21.50;63.30;;;;;;5061967;28;20037;-68
2022/06/21 10:24:55;;;;;;;8.38;2.85;;;21.50;63.40;;;;;;5049266;28;20516;-68
2022/06/21 10:27:28;;;;;;;10.00;2.40;;;21.50;63.20;;;;;;5047303;28;20398;-68
2022/06/21 10:30:29;;;;;;;8.40;3.00;;;21.50;63.10;;;;;;5063210;28;20536;-67
2022/06/21 10:33:08;;;;;;;9.80;2.70;;;21.50;62.90;;;;;;5048217;28;20567;-68
2022/06/21 10:35:39;;;;;;;7.78;2.67;;;21.50;63.20;;;;;;5045518;28;20074;-68
2022/06/21 10:38:28;;;;;;;7.00;2.53;;;21.50;63.20;;;;;;5048321;28;20064;-68
2022/06/21 10:41:20;;;;;;;7.80;2.83;;;21.60;63.20;;;;;;5049069;28;20504;-68
2022/06/21 10:44:09;;;;;;;10.73;2.80;;;21.60;63.30;;;;;;5062899;28;20029;-68
2022/06/21 10:46:44;;;;;;;7.88;2.90;;;21.60;63.20;;;;;;5040163;28;20051;-68
2022/06/21 10:49:39;;;;;;;7.68;2.63;;;21.60;63.20;;;;;;5047107;28;20033;-68
2022/06/21 10:52:24;;;;;;;9.18;2.78;;;21.60;63.10;;;;;;5047603;28;20033;-68
2022/06/21 10:55:11;;;;;;;7.93;2.90;;;21.70;63.10;;;;;;5048067;28;20036;-68
2022/06/21 10:57:40;;;;;;;6.85;2.67;;;21.70;62.80;;;;;;5047465;28;20098;-69
2022/06/21 11:03:34;;;;;;;9.90;3.28;;;21.70;62.70;;;;;;5049676;28;20413;-68
2022/06/21 11:06:21;;;;;;;8.57;2.90;;;21.70;62.80;;;;;;5002829;28;20031;-68
2022/06/21 11:09:08;;;;;;;7.70;2.95;;;21.70;62.80;;;;;;4985803;28;20036;-68
2022/06/21 11:15:13;;;;;;;8.68;3.30;;;21.70;62.80;;;;;;5006552;28;20161;-68
2022/06/21 11:18:17;;;;;;;8.45;2.90;;;21.80;63.10;;;;;;4984178;28;20465;-68
2022/06/21 11:20:55;;;;;;;7.35;2.90;;;21.80;62.70;;;;;;4974559;28;20158;-68
2022/06/21 11:23:42;;;;;;;7.60;2.92;;;21.90;63.20;;;;;;4964824;28;20082;-68
2022/06/21 11:26:13;;;;;;;8.48;2.90;;;21.90;63.20;;;;;;4965928;28;20038;-69
2022/06/21 11:29:03;;;;;;;10.13;3.08;;;21.90;62.80;;;;;;4966471;28;20039;-68
2022/06/21 11:31:38;;;;;;;10.10;3.13;;;21.90;62.80;;;;;;4978411;28;20039;-68
2022/06/21 11:34:12;;;;;;;9.82;3.03;;;21.90;62.70;;;;;;4966103;28;20027;-68
2022/06/21 11:36:56;;;;;;;6.65;2.83;;;21.90;62.90;;;;;;4949020;28;20105;-68
2022/06/21 11:39:35;;;;;;;8.57;2.92;;;21.90;62.70;;;;;;4968006;28;20041;-68
2022/06/21 11:42:08;;;;;;;9.65;3.08;;;22.00;62.70;;;;;;4967617;28;20053;-68
2022/06/21 11:44:54;;;;;;;8.77;3.05;;;22.00;62.80;;;;;;4963244;28;20046;-69
2022/06/21 11:47:38;;;;;;;9.35;3.03;;;22.00;62.50;;;;;;4963754;28;20113;-68
2022/06/21 11:50:17;;;;;;;7.18;3.10;;;22.00;62.50;;;;;;4961377;28;20051;-68
2022/06/21 11:53:00;;;;;;;9.05;3.17;;;22.10;62.90;;;;;;4963701;28;20460;-68
2022/06/21 11:55:40;;;;;;;9.07;3.22;;;22.00;63.00;;;;;;5025831;28;20043;-69
2022/06/21 11:58:16;;;;;;;7.03;2.92;;;22.10;62.90;;;;;;5057394;28;20035;-69
2022/06/21 12:00:50;;;;;;;9.25;3.03;;;22.10;62.80;;;;;;5045211;28;20558;-68
2022/06/21 12:03:50;;;;;;;8.80;3.10;;;22.10;62.60;;;;;;5062200;28;20116;-68
2022/06/21 12:06:29;;;;;;;9.15;3.58;;;22.10;62.60;;;;;;5062031;28;20025;-69
2022/06/21 12:09:01;;;;;;;7.88;3.13;;;22.10;62.60;;;;;;5061244;28;20051;-69
2022/06/21 12:11:44;;;;;;;7.88;3.20;;;22.10;62.60;;;;;;5026178;28;20091;-68
2022/06/21 12:14:33;;;;;;;9.43;3.28;;;22.20;62.60;;;;;;5046591;28;20025;-69
2022/06/21 12:17:13;;;;;;;8.23;2.85;;;22.20;62.60;;;;;;5041173;28;20390;-69
2022/06/21 12:19:41;;;;;;;10.65;3.60;;;22.20;62.60;;;;;;5060864;28;20055;-69
2022/06/21 12:22:29;;;;;;;9.80;3.20;;;22.20;62.60;;;;;;5044917;28;20028;-69
2022/06/21 12:24:55;;;;;;;9.75;3.47;;;22.20;62.70;;;;;;5034306;28;20057;-69
2022/06/21 12:27:21;;;;;;;10.48;3.60;;;22.30;62.70;;;;;;5047543;28;20037;-69
2022/06/21 12:29:46;;;;;;;9.45;3.33;;;22.30;62.60;;;;;;5057528;28;20068;-69
2022/06/21 12:32:22;;;;;;;11.48;3.40;;;22.30;62.20;;;;;;5041204;28;20022;-69
2022/06/21 12:35:18;;;;;;;7.95;3.28;;;22.30;62.30;;;;;;5041671;28;20021;-69
2022/06/21 12:37:50;;;;;;;8.77;3.60;;;22.30;62.30;;;;;;5045064;28;20504;-69
2022/06/21 12:40:38;;;;;;;11.68;3.63;;;22.40;62.30;;;;;;5044440;28;20057;-69
2022/06/21 12:43:14;;;;;;;8.88;3.10;;;22.40;62.40;;;;;;5044594;28;20095;-69
2022/06/21 12:46:04;;;;;;;9.55;3.20;;;22.40;62.30;;;;;;5027563;28;20045;-69
2022/06/21 12:48:48;;;;;;;11.45;3.60;;;22.40;62.40;;;;;;5045857;28;20112;-69
2022/06/21 12:51:18;;;;;;;10.40;3.13;;;22.40;62.30;;;;;;5046694;28;20064;-69
2022/06/21 12:53:50;;;;;;;10.23;2.95;;;22.40;62.30;;;;;;5044280;28;20017;-69
2022/06/21 12:56:34;;;;;;;10.18;3.25;;;22.40;62.20;;;;;;5045575;28;20475;-69
2022/06/21 12:59:08;;;;;;;10.30;3.50;;;22.50;62.30;;;;;;5046526;28;20024;-69
2022/06/21 13:01:46;;;;;;;9.77;3.67;;;22.50;62.10;;;;;;5058589;28;20021;-69
2022/06/21 13:04:17;;;;;;;11.77;4.00;;;22.50;62.10;;;;;;5044022;28;20033;-69
2022/06/21 13:06:54;;;;;;;10.32;3.70;;;22.50;62.00;;;;;;5044604;28;20026;-69
2022/06/21 13:09:22;;;;;;;10.82;3.90;;;22.50;61.90;;;;;;5045774;28;20040;-69
2022/06/21 13:12:05;;;;;;;9.80;3.55;;;22.60;61.90;;;;;;5056721;28;20497;-69
2022/06/21 13:14:53;;;;;;;9.02;3.53;;;22.60;62.00;;;;;;5042279;28;20033;-69
2022/06/21 13:17:50;;;;;;;9.60;3.67;;;22.60;61.90;;;;;;5057616;28;20024;-68
2022/06/21 13:20:31;;;;;;;9.30;3.33;;;22.60;61.80;;;;;;5045819;28;20412;-69
2022/06/21 13:23:06;;;;;;;9.88;3.65;;;22.60;61.70;;;;;;5058656;28;20029;-69
2022/06/21 13:25:31;;;;;;;12.05;4.00;;;22.60;61.70;;;;;;5044145;28;20111;-69
2022/06/21 13:28:24;;;;;;;9.38;3.30;;;22.70;61.80;;;;;;5041133;28;20017;-69
2022/06/21 13:31:09;;;;;;;11.38;3.50;;;22.60;61.80;;;;;;5045231;28;20055;-69
2022/06/21 13:33:37;;;;;;;11.47;3.60;;;22.60;61.90;;;;;;5046666;28;20521;-69
2022/06/21 13:36:41;;;;;;;11.32;3.75;;;22.70;61.70;;;;;;5045257;28;20298;-69
2022/06/21 13:39:51;;;;;;;10.80;3.33;;;22.70;61.40;;;;;;5044904;28;20025;-69
2022/06/21 13:42:37;;;;;;;8.50;3.60;;;22.70;61.30;;;;;;5044334;28;20575;-69
2022/06/21 13:45:10;;;;;;;9.65;3.17;;;22.70;61.20;;;;;;5046082;28;20040;-69
2022/06/21 13:47:51;;;;;;;11.05;3.63;;;22.70;61.20;;;;;;5043009;28;20131;-69
2022/06/21 13:50:18;;;;;;;9.68;3.80;;;22.70;61.10;;;;;;5058741;28;21229;-69